首页
METAR-TAF:

METAR-TAF

机场 :

弗洛里亚诺波利斯, 圣卡塔琳娜州, 巴西

纬度: 27-40S, 经度: 048-33W, 海拔: 5米

当前天气观测

该预报发布于25分钟前的21:00 UTC
风速5节,风向东转东南
温度 17°C
湿度 88%
气压 1027 hPa
能见度10公里或以上
多云层高于3600英尺

METAR: SBFL 182100Z 12005KT 9999 BKN036 17/15 Q1027

时间: 18:25 (21:25 UTC)

预报

该预报发布于6小时和25分钟前的15:00 UTC
预报有效从18日的 18点(UTC)到 19日的 18点(UTC)
风速5节,风向东转东南
能见度10公里或以上
散云层高于3000英尺
成为
从 19日的 00点(UTC)到 19日的 02点(UTC)
风速5节,风向西
多云层高于2000英尺
几率 40%
从 19日的 08点(UTC)到 19日的 11点(UTC)
多云层高于1200英尺
多云层高于2000英尺
成为
从 19日的 12点(UTC)到 1日的 点(UTC)
风速12节,风向
散云层高于3000英尺

TAF: SBFL 181500Z 1818/1918 11005KT 9999 SCT030 TN15/1908Z TX23/1918Z BECMG 1900/1902 28005KT BKN020 PROB40 1908/1911 BKN012 BKN020 BECMG 1912/1 914 35012KT SCT030 RMK PDJ

超过4000个机场的气象观测和天气预报(METAR&TAF报告)。

可查询的气象台以黄色和红色小点在地图上表示。

将鼠标移到小点上方,可查看气象台名称。

然后点击查看天气观测和预报。

如需切换地图:点击带黑十字的绿色按钮放大地图;点击带横线的绿色按钮缩小地图;或者点击绿色箭头查看邻近地区的地图。


METAR-TAF: